Mason Township, Maine
Current Conditions -  °F | °C
As of 4:52 AM on Thursday 18 Dec 2014 (Local Time) from KBML Reporting Station
Overcast Overcast  
Wind Chill: 27°   Ceiling: 2800
Heat Index: 34°   Visibility: 10mi
Dew Point: 29°   Wind: 8mph
Humidity: 82%   Direction: 280°W
Pressure: 29.64"   Gusts: NA
Location:  44.3718°N, 70.8421°W
Report Text: KBML 180952Z AUTO 28007KT 260V330 10SM OVC028 01/M02 A2964 RMK AO2 SNE41 SLP048 P0000 T00111017
Loading
Personal Weather Stations






























Interactive Weather Map New forecast layout! Learn more

10-Day Weather Forecast

Advertisements
Track Severe Weather on mobile